Time,TemperatureF,DewpointF,PressureIn,WindDirection,WindDirectionDegrees,WindSpeedMPH,WindSpeedGustMPH,Humidity,HourlyPrecipIn,Conditions,Clouds,dailyrainin,SolarRadiationWatts/m^2,SoftwareType,DateUTC
2013-04-09 00:03:00,43.0,37.0,-100.00,NE,52,2.0,4.0,79,0.00,,,0.00,0.000000,,2013-04-09 04:03:00,
2013-04-09 00:13:00,43.0,37.0,-100.00,NE,52,2.0,4.0,79,0.00,,,0.00,0.000000,,2013-04-09 04:13:00,
2013-04-09 00:43:00,44.0,39.0,-100.00,NNE,13,2.0,5.0,83,0.00,,,0.00,0.000000,,2013-04-09 04:43:00,
2013-04-09 00:53:00,44.0,39.0,-100.00,NNE,13,2.0,5.0,83,0.00,,,0.00,0.000000,,2013-04-09 04:53:00,
2013-04-09 01:02:00,44.0,39.0,-100.00,NNE,13,2.0,5.0,83,0.00,,,0.00,0.000000,,2013-04-09 05:02:00,
2013-04-09 01:12:00,44.0,39.0,-100.00,NNE,13,2.0,5.0,83,0.00,,,0.00,0.000000,,2013-04-09 05:12:00,
2013-04-09 01:32:00,54.0,43.0,-100.00,SSW,211,6.0,12.0,65,0.01,,,0.01,0.000000,,2013-04-09 05:32:00,
2013-04-09 01:43:00,54.0,43.0,-100.00,SSW,211,6.0,12.0,65,0.01,,,0.01,0.000000,,2013-04-09 05:43:00,
2013-04-09 01:52:00,54.0,43.0,-100.00,SSW,211,6.0,12.0,65,0.01,,,0.01,0.000000,,2013-04-09 05:52:00,
2013-04-09 02:02:00,54.0,43.0,-100.00,SSW,211,6.0,12.0,65,0.01,,,0.01,0.000000,,2013-04-09 06:02:00,
2013-04-09 02:12:00,54.0,43.0,-100.00,SSW,211,6.0,12.0,65,0.01,,,0.01,0.000000,,2013-04-09 06:12:00,
2013-04-09 02:32:00,50.0,42.0,-100.00,SSE,147,5.0,17.0,75,0.03,,,0.04,0.000000,,2013-04-09 06:32:00,
2013-04-09 02:42:00,50.0,42.0,-100.00,SSE,147,5.0,17.0,75,0.03,,,0.04,0.000000,,2013-04-09 06:42:00,
2013-04-09 02:52:00,50.0,42.0,-100.00,SSE,147,5.0,17.0,75,0.03,,,0.04,0.000000,,2013-04-09 06:52:00,
2013-04-09 03:02:00,50.0,42.0,-100.00,SSE,147,5.0,17.0,75,0.03,,,0.04,0.000000,,2013-04-09 07:02:00,
2013-04-09 03:13:00,50.0,42.0,-100.00,SSE,147,5.0,17.0,75,0.03,,,0.04,0.000000,,2013-04-09 07:13:00,
2013-04-09 03:42:00,49.0,42.0,-100.00,ENE,62,4.0,17.0,76,0.02,,,0.06,0.000000,,2013-04-09 07:42:00,
2013-04-09 03:53:00,49.0,42.0,-100.00,ENE,62,4.0,17.0,76,0.02,,,0.06,0.000000,,2013-04-09 07:53:00,
2013-04-09 04:03:00,49.0,42.0,-100.00,ENE,62,4.0,17.0,76,0.02,,,0.06,0.000000,,2013-04-09 08:03:00,
2013-04-09 04:13:00,49.0,42.0,-100.00,ENE,62,4.0,17.0,76,0.02,,,0.06,0.000000,,2013-04-09 08:13:00,
2013-04-09 04:42:00,49.0,46.0,-100.00,East,91,7.0,18.0,88,0.01,,,0.07,0.000000,,2013-04-09 08:42:00,
2013-04-09 04:52:00,49.0,46.0,-100.00,East,91,7.0,18.0,88,0.01,,,0.07,0.000000,,2013-04-09 08:52:00,
2013-04-09 05:02:00,49.0,46.0,-100.00,East,91,7.0,18.0,88,0.01,,,0.07,0.000000,,2013-04-09 09:02:00,
2013-04-09 05:12:00,49.0,46.0,-100.00,East,91,7.0,18.0,88,0.01,,,0.07,0.000000,,2013-04-09 09:12:00,
2013-04-09 05:44:00,51.0,45.0,-100.00,ENE,67,6.0,14.0,80,0.00,,,0.07,0.000000,,2013-04-09 09:44:00,
2013-04-09 05:53:00,51.0,45.0,-100.00,ENE,67,6.0,14.0,80,0.00,,,0.07,0.000000,,2013-04-09 09:53:00,
2013-04-09 06:04:00,51.0,45.0,-100.00,ENE,67,6.0,14.0,80,0.00,,,0.07,0.000000,,2013-04-09 10:04:00,
2013-04-09 06:13:00,51.0,45.0,-100.00,ENE,67,6.0,14.0,80,0.00,,,0.07,0.000000,,2013-04-09 10:13:00,
2013-04-09 06:43:00,54.0,51.0,-100.00,SW,219,5.0,12.0,90,0.00,,,0.07,1.000000,,2013-04-09 10:43:00,
2013-04-09 06:54:00,54.0,51.0,-100.00,SW,219,5.0,12.0,90,0.00,,,0.07,1.000000,,2013-04-09 10:54:00,
2013-04-09 07:02:00,54.0,51.0,-100.00,SW,219,5.0,12.0,90,0.00,,,0.07,1.000000,,2013-04-09 11:02:00,
2013-04-09 07:12:00,54.0,51.0,-100.00,SW,219,5.0,12.0,90,0.00,,,0.07,1.000000,,2013-04-09 11:12:00,
2013-04-09 07:32:00,53.0,53.0,-100.00,SSE,166,4.0,10.0,100,0.00,,,0.07,12.000000,,2013-04-09 11:32:00,
2013-04-09 07:43:00,53.0,53.0,-100.00,SSE,166,4.0,10.0,100,0.00,,,0.07,12.000000,,2013-04-09 11:43:00,
2013-04-09 07:52:00,53.0,53.0,-100.00,SSE,166,4.0,10.0,100,0.00,,,0.07,12.000000,,2013-04-09 11:52:00,
2013-04-09 08:02:00,53.0,53.0,-100.00,SSE,166,4.0,10.0,100,0.00,,,0.07,12.000000,,2013-04-09 12:02:00,
2013-04-09 08:12:00,53.0,53.0,-100.00,SSE,166,4.0,10.0,100,0.00,,,0.07,12.000000,,2013-04-09 12:12:00,
2013-04-09 08:33:00,58.0,46.0,-100.00,WSW,252,10.0,21.0,65,0.00,,,0.07,51.000000,,2013-04-09 12:33:00,
2013-04-09 08:43:00,58.0,46.0,-100.00,WSW,252,10.0,21.0,65,0.00,,,0.07,51.000000,,2013-04-09 12:43:00,
2013-04-09 08:53:00,58.0,46.0,-100.00,WSW,252,10.0,21.0,65,0.00,,,0.07,51.000000,,2013-04-09 12:53:00,
2013-04-09 09:03:00,58.0,46.0,-100.00,WSW,252,10.0,21.0,65,0.00,,,0.07,51.000000,,2013-04-09 13:03:00,
2013-04-09 09:13:00,58.0,46.0,-100.00,WSW,252,10.0,21.0,65,0.00,,,0.07,51.000000,,2013-04-09 13:13:00,
2013-04-09 09:43:00,57.0,53.0,-100.00,South,185,4.0,19.0,86,0.00,,,0.07,91.000000,,2013-04-09 13:43:00,
2013-04-09 09:53:00,57.0,53.0,-100.00,South,185,4.0,19.0,86,0.00,,,0.07,91.000000,,2013-04-09 13:53:00,
2013-04-09 10:03:00,57.0,53.0,-100.00,South,185,4.0,19.0,86,0.00,,,0.07,91.000000,,2013-04-09 14:03:00,
2013-04-09 10:12:00,57.0,53.0,-100.00,South,185,4.0,19.0,86,0.00,,,0.07,91.000000,,2013-04-09 14:12:00,
2013-04-09 10:43:00,56.0,44.0,-100.00,WSW,244,9.0,18.0,65,0.00,,,0.07,92.000000,,2013-04-09 14:43:00,
2013-04-09 10:53:00,56.0,44.0,-100.00,WSW,244,9.0,18.0,65,0.00,,,0.07,92.000000,,2013-04-09 14:53:00,
2013-04-09 11:02:00,56.0,44.0,-100.00,WSW,244,9.0,18.0,65,0.00,,,0.07,92.000000,,2013-04-09 15:02:00,
2013-04-09 11:13:00,56.0,44.0,-100.00,WSW,244,9.0,18.0,65,0.00,,,0.07,92.000000,,2013-04-09 15:13:00,
2013-04-09 11:34:00,57.0,44.0,-100.00,West,277,7.0,23.0,62,0.00,,,0.07,140.000000,,2013-04-09 15:34:00,
2013-04-09 11:44:00,57.0,44.0,-100.00,West,277,7.0,23.0,62,0.00,,,0.07,140.000000,,2013-04-09 15:44:00,
2013-04-09 11:54:00,57.0,44.0,-100.00,West,277,7.0,23.0,62,0.00,,,0.07,140.000000,,2013-04-09 15:54:00,
2013-04-09 12:03:00,57.0,44.0,-100.00,West,277,7.0,23.0,62,0.00,,,0.07,140.000000,,2013-04-09 16:03:00,
2013-04-09 12:13:00,57.0,44.0,-100.00,West,277,7.0,23.0,62,0.00,,,0.07,140.000000,,2013-04-09 16:13:00,
2013-04-09 12:43:00,55.0,42.0,-100.00,West,270,10.0,19.0,62,0.00,,,-99.99,132.000000,,2013-04-09 16:43:00,
2013-04-09 12:54:00,55.0,42.0,-100.00,West,270,10.0,19.0,62,0.00,,,-99.99,132.000000,,2013-04-09 16:54:00,
2013-04-09 13:03:00,55.0,42.0,-100.00,West,270,10.0,19.0,62,0.00,,,-99.99,132.000000,,2013-04-09 17:03:00,
2013-04-09 13:13:00,55.0,42.0,-100.00,West,270,10.0,19.0,62,0.00,,,-99.99,132.000000,,2013-04-09 17:13:00,
2013-04-09 13:33:00,57.0,43.0,-100.00,West,269,5.0,20.0,59,0.00,,,0.07,191.000000,,2013-04-09 17:33:00,
2013-04-09 13:43:00,57.0,43.0,-100.00,West,269,5.0,20.0,59,0.00,,,0.07,191.000000,,2013-04-09 17:43:00,
2013-04-09 13:54:00,57.0,43.0,-100.00,West,269,5.0,20.0,59,0.00,,,0.07,191.000000,,2013-04-09 17:54:00,
2013-04-09 14:03:00,57.0,43.0,-100.00,West,269,5.0,20.0,59,0.00,,,0.07,191.000000,,2013-04-09 18:03:00,
2013-04-09 14:13:00,57.0,43.0,-100.00,West,269,5.0,20.0,59,0.00,,,0.07,191.000000,,2013-04-09 18:13:00,
2013-04-09 14:43:00,59.0,42.0,-100.00,NW,308,6.0,14.0,53,0.00,,,0.07,244.000000,,2013-04-09 18:43:00,
2013-04-09 14:53:00,59.0,42.0,-100.00,NW,308,6.0,14.0,53,0.00,,,0.07,244.000000,,2013-04-09 18:53:00,
2013-04-09 15:03:00,59.0,42.0,-100.00,NW,308,6.0,14.0,53,0.00,,,0.07,244.000000,,2013-04-09 19:03:00,
2013-04-09 15:12:00,59.0,42.0,-100.00,NW,308,6.0,14.0,53,0.00,,,0.07,244.000000,,2013-04-09 19:12:00,
2013-04-09 15:53:00,63.0,41.0,-100.00,WSW,247,9.0,19.0,44,0.00,,,0.07,609.000000,,2013-04-09 19:53:00,
2013-04-09 16:03:00,63.0,41.0,-100.00,WSW,247,9.0,19.0,44,0.00,,,0.07,609.000000,,2013-04-09 20:03:00,
2013-04-09 16:12:00,63.0,41.0,-100.00,WSW,247,9.0,19.0,44,0.00,,,0.07,609.000000,,2013-04-09 20:12:00,
2013-04-09 16:14:00,64.0,39.0,-100.00,WNW,287,6.0,24.0,39,0.00,,,0.07,569.000000,,2013-04-09 20:14:00,
2013-04-09 16:44:00,64.0,39.0,-100.00,WNW,287,6.0,24.0,39,0.00,,,0.07,569.000000,,2013-04-09 20:44:00,
2013-04-09 16:53:00,64.0,39.0,-100.00,WNW,287,6.0,24.0,39,0.00,,,0.07,569.000000,,2013-04-09 20:53:00,
2013-04-09 17:03:00,64.0,39.0,-100.00,WNW,287,6.0,24.0,39,0.00,,,0.07,569.000000,,2013-04-09 21:03:00,
2013-04-09 17:53:00,63.0,38.0,-100.00,NW,319,5.0,15.0,39,0.00,,,0.07,336.000000,,2013-04-09 21:53:00,
2013-04-09 18:13:00,63.0,38.0,-100.00,NW,319,5.0,15.0,39,0.00,,,0.07,336.000000,,2013-04-09 22:13:00,
2013-04-09 18:33:00,61.0,37.0,-100.00,North,359,3.0,11.0,41,0.00,,,0.07,181.000000,,2013-04-09 22:33:00,
2013-04-09 18:43:00,61.0,37.0,-100.00,North,359,3.0,11.0,41,0.00,,,0.07,181.000000,,2013-04-09 22:43:00,
2013-04-09 18:54:00,61.0,37.0,-100.00,North,359,3.0,11.0,41,0.00,,,0.07,181.000000,,2013-04-09 22:54:00,
2013-04-09 19:03:00,61.0,37.0,-100.00,North,359,3.0,11.0,41,0.00,,,0.07,181.000000,,2013-04-09 23:03:00,
2013-04-09 19:13:00,61.0,37.0,-100.00,North,359,3.0,11.0,41,0.00,,,0.07,181.000000,,2013-04-09 23:13:00,
2013-04-09 19:43:00,57.0,36.0,-100.00,West,275,4.0,9.0,45,0.00,,,0.07,45.000000,,2013-04-09 23:43:00,
2013-04-09 19:53:00,57.0,36.0,-100.00,West,275,4.0,9.0,45,0.00,,,0.07,45.000000,,2013-04-09 23:53:00,
2013-04-09 20:03:00,57.0,36.0,-100.00,West,275,4.0,9.0,45,0.00,,,0.07,45.000000,,2013-04-10 00:03:00,
2013-04-09 20:13:00,57.0,36.0,-100.00,West,275,4.0,9.0,45,0.00,,,0.07,45.000000,,2013-04-10 00:13:00,
2013-04-09 20:43:00,54.0,39.0,-100.00,WSW,238,4.0,9.0,56,0.00,,,0.07,2.000000,,2013-04-10 00:43:00,
2013-04-09 20:53:00,54.0,39.0,-100.00,WSW,238,4.0,9.0,56,0.00,,,0.07,2.000000,,2013-04-10 00:53:00,
2013-04-09 21:02:00,54.0,39.0,-100.00,WSW,238,4.0,9.0,56,0.00,,,0.07,2.000000,,2013-04-10 01:02:00,
2013-04-09 21:12:00,54.0,39.0,-100.00,WSW,238,4.0,9.0,56,0.00,,,0.07,2.000000,,2013-04-10 01:12:00,
2013-04-09 21:33:00,49.0,39.0,-100.00,North,355,2.0,7.0,69,0.00,,,0.07,0.000000,,2013-04-10 01:33:00,
2013-04-09 21:43:00,49.0,39.0,-100.00,North,355,2.0,7.0,69,0.00,,,0.07,0.000000,,2013-04-10 01:43:00,
2013-04-09 21:53:00,49.0,39.0,-100.00,North,355,2.0,7.0,69,0.00,,,0.07,0.000000,,2013-04-10 01:53:00,
2013-04-09 22:03:00,49.0,39.0,-100.00,North,355,2.0,7.0,69,0.00,,,0.07,0.000000,,2013-04-10 02:03:00,
2013-04-09 22:13:00,49.0,39.0,-100.00,North,355,2.0,7.0,69,0.00,,,0.07,0.000000,,2013-04-10 02:13:00,
2013-04-09 22:33:00,47.0,38.0,-100.00,North,1,2.0,5.0,70,0.00,,,0.07,0.000000,,2013-04-10 02:33:00,
2013-04-09 22:43:00,47.0,38.0,-100.00,North,1,2.0,5.0,70,0.00,,,0.07,0.000000,,2013-04-10 02:43:00,
2013-04-09 22:53:00,47.0,38.0,-100.00,North,1,2.0,5.0,70,0.00,,,0.07,0.000000,,2013-04-10 02:53:00,
2013-04-09 23:03:00,47.0,38.0,-100.00,North,1,2.0,5.0,70,0.00,,,0.07,0.000000,,2013-04-10 03:03:00,
2013-04-09 23:12:00,47.0,38.0,-100.00,North,1,2.0,5.0,70,0.00,,,0.07,0.000000,,2013-04-10 03:12:00,
2013-04-09 23:43:00,47.0,38.0,-100.00,ESE,108,1.0,7.0,72,0.00,,,0.07,0.000000,,2013-04-10 03:43:00,
2013-04-09 23:53:00,47.0,38.0,-100.00,ESE,108,1.0,7.0,72,0.00,,,0.07,0.000000,,2013-04-10 03:53:00,